sensor_id;sensor_type;location;lat;lon;timestamp;pressure;altitude;pressure_sealevel;temperature;humidity
64698;BME280;51124;53.394;-6.294;2023-05-12T00:01:23;101719.90;;;21.38;12.99
64698;BME280;51124;53.394;-6.294;2023-05-12T00:03:59;101723.29;;;20.20;13.47
64698;BME280;51124;53.394;-6.294;2023-05-12T00:06:25;101715.64;;;21.25;13.04
64698;BME280;51124;53.394;-6.294;2023-05-12T00:08:51;101712.88;;;20.99;13.21
64698;BME280;51124;53.394;-6.294;2023-05-12T00:11:16;101717.87;;;20.42;13.31
64698;BME280;51124;53.394;-6.294;2023-05-12T00:13:41;101716.29;;;21.14;13.24
64698;BME280;51124;53.394;-6.294;2023-05-12T00:16:07;101722.22;;;20.63;13.29
64698;BME280;51124;53.394;-6.294;2023-05-12T00:18:33;101723.60;;;20.75;13.42
64698;BME280;51124;53.394;-6.294;2023-05-12T00:20:58;101726.32;;;19.91;13.45
64698;BME280;51124;53.394;-6.294;2023-05-12T00:23:23;101718.85;;;19.04;13.19
64698;BME280;51124;53.394;-6.294;2023-05-12T00:25:49;101723.83;;;18.47;12.76
64698;BME280;51124;53.394;-6.294;2023-05-12T00:28:14;101724.43;;;17.41;12.42
64698;BME280;51124;53.394;-6.294;2023-05-12T00:30:37;101722.31;;;17.56;12.14
64698;BME280;51124;53.394;-6.294;2023-05-12T00:33:10;101721.78;;;19.81;11.73
64698;BME280;51124;53.394;-6.294;2023-05-12T00:35:46;101722.65;;;18.81;11.65
64698;BME280;51124;53.394;-6.294;2023-05-12T00:38:11;101726.29;;;18.56;11.37
64698;BME280;51124;53.394;-6.294;2023-05-12T00:40:34;101728.54;;;18.37;11.29
64698;BME280;51124;53.394;-6.294;2023-05-12T00:43:08;101737.76;;;18.05;11.29
64698;BME280;51124;53.394;-6.294;2023-05-12T00:45:41;101735.63;;;18.70;10.98
64698;BME280;51124;53.394;-6.294;2023-05-12T00:48:15;101734.51;;;18.05;11.04
64698;BME280;51124;53.394;-6.294;2023-05-12T00:50:49;101735.98;;;18.37;10.97
64698;BME280;51124;53.394;-6.294;2023-05-12T00:53:23;101740.58;;;18.54;11.00
64698;BME280;51124;53.394;-6.294;2023-05-12T00:55:57;101740.99;;;18.90;10.99
64698;BME280;51124;53.394;-6.294;2023-05-12T00:58:30;101740.59;;;18.03;10.97
64698;BME280;51124;53.394;-6.294;2023-05-12T01:01:04;101737.69;;;19.16;10.68
64698;BME280;51124;53.394;-6.294;2023-05-12T01:03:37;101740.83;;;18.10;10.83
64698;BME280;51124;53.394;-6.294;2023-05-12T01:06:14;101741.34;;;18.53;10.72
64698;BME280;51124;53.394;-6.294;2023-05-12T01:08:38;101743.00;;;19.04;10.64
64698;BME280;51124;53.394;-6.294;2023-05-12T01:11:13;101748.65;;;18.80;10.63
64698;BME280;51124;53.394;-6.294;2023-05-12T01:13:46;101750.94;;;17.96;10.74
64698;BME280;51124;53.394;-6.294;2023-05-12T01:16:22;101756.73;;;17.30;10.78
64698;BME280;51124;53.394;-6.294;2023-05-12T01:18:50;101755.54;;;18.46;10.58
64698;BME280;51124;53.394;-6.294;2023-05-12T01:21:16;101754.76;;;19.08;10.56
64698;BME280;51124;53.394;-6.294;2023-05-12T01:23:55;101756.94;;;18.24;10.66
64698;BME280;51124;53.394;-6.294;2023-05-12T01:26:22;101760.80;;;18.27;10.73
64698;BME280;51124;53.394;-6.294;2023-05-12T01:28:49;101760.50;;;18.86;10.57
64698;BME280;51124;53.394;-6.294;2023-05-12T01:31:15;101762.06;;;17.73;10.81
64698;BME280;51124;53.394;-6.294;2023-05-12T01:33:42;101757.28;;;18.47;10.48
64698;BME280;51124;53.394;-6.294;2023-05-12T01:36:05;101759.10;;;17.77;10.75
64698;BME280;51124;53.394;-6.294;2023-05-12T01:38:38;101759.37;;;18.16;10.57
64698;BME280;51124;53.394;-6.294;2023-05-12T01:41:12;101756.25;;;18.12;10.60
64698;BME280;51124;53.394;-6.294;2023-05-12T01:43:45;101758.03;;;17.60;10.68
64698;BME280;51124;53.394;-6.294;2023-05-12T01:46:19;101759.45;;;17.90;10.77
64698;BME280;51124;53.394;-6.294;2023-05-12T01:48:52;101762.87;;;18.90;10.46
64698;BME280;51124;53.394;-6.294;2023-05-12T01:51:25;101762.55;;;18.22;10.76
64698;BME280;51124;53.394;-6.294;2023-05-12T01:53:59;101767.05;;;19.89;10.55
64698;BME280;51124;53.394;-6.294;2023-05-12T01:56:34;101769.01;;;17.32;10.93
64698;BME280;51124;53.394;-6.294;2023-05-12T01:58:57;101772.19;;;17.06;10.88
64698;BME280;51124;53.394;-6.294;2023-05-12T02:01:31;101779.75;;;18.71;10.68
64698;BME280;51124;53.394;-6.294;2023-05-12T02:04:05;101780.16;;;18.16;10.72
64698;BME280;51124;53.394;-6.294;2023-05-12T02:06:42;101784.01;;;17.82;10.64
64698;BME280;51124;53.394;-6.294;2023-05-12T02:09:09;101784.50;;;18.24;10.75
64698;BME280;51124;53.394;-6.294;2023-05-12T02:11:36;101784.33;;;17.93;10.73
64698;BME280;51124;53.394;-6.294;2023-05-12T02:14:04;101787.67;;;17.74;10.75
64698;BME280;51124;53.394;-6.294;2023-05-12T02:16:31;101789.30;;;17.58;10.86
64698;BME280;51124;53.394;-6.294;2023-05-12T02:18:58;101792.12;;;17.96;10.64
64698;BME280;51124;53.394;-6.294;2023-05-12T02:21:25;101790.69;;;17.91;10.60
64698;BME280;51124;53.394;-6.294;2023-05-12T02:23:53;101796.13;;;19.96;10.91
64698;BME280;51124;53.394;-6.294;2023-05-12T02:26:20;101806.39;;;19.92;11.37
64698;BME280;51124;53.394;-6.294;2023-05-12T02:28:47;101808.28;;;19.02;11.32
64698;BME280;51124;53.394;-6.294;2023-05-12T02:31:15;101813.41;;;20.54;11.75
64698;BME280;51124;53.394;-6.294;2023-05-12T02:33:43;101816.00;;;21.07;12.19
64698;BME280;51124;53.394;-6.294;2023-05-12T02:36:10;101817.72;;;21.14;12.12
64698;BME280;51124;53.394;-6.294;2023-05-12T02:38:37;101819.53;;;20.65;12.61
64698;BME280;51124;53.394;-6.294;2023-05-12T02:41:05;101817.56;;;21.17;12.66
64698;BME280;51124;53.394;-6.294;2023-05-12T02:43:32;101819.09;;;20.19;12.96
64698;BME280;51124;53.394;-6.294;2023-05-12T02:46:00;101818.69;;;20.12;12.89
64698;BME280;51124;53.394;-6.294;2023-05-12T02:48:27;101826.16;;;20.83;12.88
64698;BME280;51124;53.394;-6.294;2023-05-12T02:50:54;101822.28;;;20.87;12.84
64698;BME280;51124;53.394;-6.294;2023-05-12T02:53:22;101828.03;;;19.91;13.31
64698;BME280;51124;53.394;-6.294;2023-05-12T02:55:49;101831.23;;;19.65;13.15
64698;BME280;51124;53.394;-6.294;2023-05-12T02:58:17;101829.51;;;19.43;13.39
64698;BME280;51124;53.394;-6.294;2023-05-12T03:00:45;101834.48;;;20.59;13.02
64698;BME280;51124;53.394;-6.294;2023-05-12T03:03:13;101831.08;;;20.02;13.31
64698;BME280;51124;53.394;-6.294;2023-05-12T03:05:40;101829.85;;;19.75;13.16
64698;BME280;51124;53.394;-6.294;2023-05-12T03:08:07;101833.87;;;20.48;13.02
64698;BME280;51124;53.394;-6.294;2023-05-12T03:10:34;101834.30;;;20.01;13.39
64698;BME280;51124;53.394;-6.294;2023-05-12T03:13:02;101836.93;;;19.42;13.13
64698;BME280;51124;53.394;-6.294;2023-05-12T03:15:29;101839.33;;;19.36;13.35
64698;BME280;51124;53.394;-6.294;2023-05-12T03:17:57;101837.45;;;20.63;13.10
64698;BME280;51124;53.394;-6.294;2023-05-12T03:20:24;101842.56;;;19.92;13.17
64698;BME280;51124;53.394;-6.294;2023-05-12T03:22:51;101840.18;;;17.69;13.04
64698;BME280;51124;53.394;-6.294;2023-05-12T03:25:19;101838.67;;;17.28;12.56
64698;BME280;51124;53.394;-6.294;2023-05-12T03:27:46;101838.50;;;17.94;12.16
64698;BME280;51124;53.394;-6.294;2023-05-12T03:30:14;101832.34;;;18.71;11.78
64698;BME280;51124;53.394;-6.294;2023-05-12T03:32:41;101834.17;;;17.52;11.81
64698;BME280;51124;53.394;-6.294;2023-05-12T03:35:08;101833.98;;;17.86;11.65
64698;BME280;51124;53.394;-6.294;2023-05-12T03:37:36;101830.47;;;17.38;11.56
64698;BME280;51124;53.394;-6.294;2023-05-12T03:40:03;101832.90;;;17.54;11.28
64698;BME280;51124;53.394;-6.294;2023-05-12T03:42:31;101836.79;;;17.57;11.42
64698;BME280;51124;53.394;-6.294;2023-05-12T03:44:58;101835.83;;;17.60;11.17
64698;BME280;51124;53.394;-6.294;2023-05-12T03:47:25;101838.48;;;17.25;11.26
64698;BME280;51124;53.394;-6.294;2023-05-12T03:49:52;101839.54;;;17.77;11.14
64698;BME280;51124;53.394;-6.294;2023-05-12T03:52:20;101838.66;;;18.19;10.79
64698;BME280;51124;53.394;-6.294;2023-05-12T03:54:47;101841.88;;;18.06;11.01
64698;BME280;51124;53.394;-6.294;2023-05-12T03:57:14;101841.35;;;17.81;10.85
64698;BME280;51124;53.394;-6.294;2023-05-12T03:59:41;101840.35;;;17.14;11.01
64698;BME280;51124;53.394;-6.294;2023-05-12T04:02:09;101843.97;;;18.07;10.73
64698;BME280;51124;53.394;-6.294;2023-05-12T04:04:36;101847.02;;;17.27;10.82
64698;BME280;51124;53.394;-6.294;2023-05-12T04:07:03;101849.91;;;17.72;10.73
64698;BME280;51124;53.394;-6.294;2023-05-12T04:09:31;101851.05;;;17.55;10.86
64698;BME280;51124;53.394;-6.294;2023-05-12T04:11:59;101856.58;;;17.28;10.85
64698;BME280;51124;53.394;-6.294;2023-05-12T04:14:26;101861.29;;;17.34;10.84
64698;BME280;51124;53.394;-6.294;2023-05-12T04:16:53;101864.31;;;18.05;10.59
64698;BME280;51124;53.394;-6.294;2023-05-12T04:19:20;101863.57;;;17.35;10.70
64698;BME280;51124;53.394;-6.294;2023-05-12T04:21:48;101869.49;;;17.74;10.67
64698;BME280;51124;53.394;-6.294;2023-05-12T04:24:15;101873.40;;;17.77;10.61
64698;BME280;51124;53.394;-6.294;2023-05-12T04:26:42;101872.64;;;17.94;10.67
64698;BME280;51124;53.394;-6.294;2023-05-12T04:29:09;101875.35;;;17.84;10.67
64698;BME280;51124;53.394;-6.294;2023-05-12T04:31:37;101880.36;;;17.70;10.49
64698;BME280;51124;53.394;-6.294;2023-05-12T04:34:04;101885.37;;;18.46;10.47
64698;BME280;51124;53.394;-6.294;2023-05-12T04:36:31;101882.89;;;18.41;10.62
64698;BME280;51124;53.394;-6.294;2023-05-12T04:38:58;101883.29;;;18.02;10.62
64698;BME280;51124;53.394;-6.294;2023-05-12T04:41:26;101882.71;;;17.98;10.62
64698;BME280;51124;53.394;-6.294;2023-05-12T04:43:53;101889.34;;;18.27;10.47
64698;BME280;51124;53.394;-6.294;2023-05-12T04:46:20;101891.40;;;17.64;10.63
64698;BME280;51124;53.394;-6.294;2023-05-12T04:48:48;101896.21;;;18.23;10.58
64698;BME280;51124;53.394;-6.294;2023-05-12T04:51:15;101902.32;;;18.03;10.53
64698;BME280;51124;53.394;-6.294;2023-05-12T04:53:42;101906.29;;;17.56;10.77
64698;BME280;51124;53.394;-6.294;2023-05-12T04:56:09;101903.09;;;17.31;10.79
64698;BME280;51124;53.394;-6.294;2023-05-12T04:58:36;101906.48;;;17.73;10.46
64698;BME280;51124;53.394;-6.294;2023-05-12T05:01:04;101909.91;;;18.40;10.40
64698;BME280;51124;53.394;-6.294;2023-05-12T05:03:31;101909.99;;;18.38;10.38
64698;BME280;51124;53.394;-6.294;2023-05-12T05:05:59;101908.87;;;18.22;10.52
64698;BME280;51124;53.394;-6.294;2023-05-12T05:08:26;101912.84;;;17.68;10.78
64698;BME280;51124;53.394;-6.294;2023-05-12T05:10:53;101919.05;;;18.13;10.50
64698;BME280;51124;53.394;-6.294;2023-05-12T05:13:21;101917.39;;;17.88;10.52
64698;BME280;51124;53.394;-6.294;2023-05-12T05:15:51;101918.96;;;17.86;10.49
64698;BME280;51124;53.394;-6.294;2023-05-12T05:18:18;101925.32;;;17.91;10.54
64698;BME280;51124;53.394;-6.294;2023-05-12T05:20:45;101924.99;;;18.59;10.50
64698;BME280;51124;53.394;-6.294;2023-05-12T05:23:13;101931.00;;;20.61;10.88
64698;BME280;51124;53.394;-6.294;2023-05-12T05:25:40;101933.93;;;18.89;11.00
64698;BME280;51124;53.394;-6.294;2023-05-12T05:28:08;101944.39;;;18.59;11.02
64698;BME280;51124;53.394;-6.294;2023-05-12T05:30:35;101954.07;;;21.31;11.27
64698;BME280;51124;53.394;-6.294;2023-05-12T05:33:03;101960.57;;;21.23;11.87
64698;BME280;51124;53.394;-6.294;2023-05-12T05:35:31;101967.52;;;19.81;12.37
64698;BME280;51124;53.394;-6.294;2023-05-12T05:37:58;101970.37;;;21.02;12.34
64698;BME280;51124;53.394;-6.294;2023-05-12T05:40:26;101970.64;;;19.71;12.64
64698;BME280;51124;53.394;-6.294;2023-05-12T05:42:53;101975.56;;;20.29;12.67
64698;BME280;51124;53.394;-6.294;2023-05-12T05:45:21;101985.57;;;20.09;12.65
64698;BME280;51124;53.394;-6.294;2023-05-12T05:47:48;101988.54;;;20.34;12.67
64698;BME280;51124;53.394;-6.294;2023-05-12T05:50:16;101989.62;;;20.03;12.81
64698;BME280;51124;53.394;-6.294;2023-05-12T05:52:43;101988.62;;;20.40;12.84
64698;BME280;51124;53.394;-6.294;2023-05-12T05:55:11;101992.23;;;20.37;12.82
64698;BME280;51124;53.394;-6.294;2023-05-12T05:57:38;102000.70;;;19.56;13.06
64698;BME280;51124;53.394;-6.294;2023-05-12T06:00:02;102005.68;;;19.94;13.04
64698;BME280;51124;53.394;-6.294;2023-05-12T06:02:35;102007.49;;;19.43;13.02
64698;BME280;51124;53.394;-6.294;2023-05-12T06:05:09;102014.71;;;20.25;12.99
64698;BME280;51124;53.394;-6.294;2023-05-12T06:07:43;102019.29;;;19.92;12.92
64698;BME280;51124;53.394;-6.294;2023-05-12T06:10:16;102021.08;;;19.76;13.04
64698;BME280;51124;53.394;-6.294;2023-05-12T06:13:02;102018.14;;;19.96;12.88
64698;BME280;51124;53.394;-6.294;2023-05-12T06:15:25;102022.24;;;19.60;13.04
64698;BME280;51124;53.394;-6.294;2023-05-12T06:17:59;102026.50;;;20.50;12.85
64698;BME280;51124;53.394;-6.294;2023-05-12T06:20:33;102030.13;;;19.05;12.93
64698;BME280;51124;53.394;-6.294;2023-05-12T06:23:06;102028.60;;;17.94;12.38
64698;BME280;51124;53.394;-6.294;2023-05-12T06:25:40;102028.65;;;18.04;12.01
64698;BME280;51124;53.394;-6.294;2023-05-12T06:28:13;102031.01;;;18.43;11.69
64698;BME280;51124;53.394;-6.294;2023-05-12T06:30:46;102031.64;;;19.22;11.31
64698;BME280;51124;53.394;-6.294;2023-05-12T06:33:22;102026.25;;;18.79;11.28
64698;BME280;51124;53.394;-6.294;2023-05-12T06:35:47;102028.66;;;17.97;10.99
64698;BME280;51124;53.394;-6.294;2023-05-12T06:38:12;102034.71;;;17.52;11.06
64698;BME280;51124;53.394;-6.294;2023-05-12T06:40:37;102039.00;;;18.49;10.72
64698;BME280;51124;53.394;-6.294;2023-05-12T06:43:03;102041.09;;;17.68;10.97
64698;BME280;51124;53.394;-6.294;2023-05-12T06:45:28;102040.05;;;18.01;11.18
64698;BME280;51124;53.394;-6.294;2023-05-12T06:47:51;102039.31;;;19.48;10.64
64698;BME280;51124;53.394;-6.294;2023-05-12T06:50:24;102046.27;;;17.67;11.12
64698;BME280;51124;53.394;-6.294;2023-05-12T06:52:58;102053.78;;;17.18;11.07
64698;BME280;51124;53.394;-6.294;2023-05-12T06:55:31;102050.44;;;17.83;10.50
64698;BME280;51124;53.394;-6.294;2023-05-12T06:58:04;102050.69;;;18.33;10.43
64698;BME280;51124;53.394;-6.294;2023-05-12T07:00:38;102047.08;;;18.23;10.31
64698;BME280;51124;53.394;-6.294;2023-05-12T07:03:11;102052.12;;;18.26;10.14
64698;BME280;51124;53.394;-6.294;2023-05-12T07:05:45;102055.39;;;17.78;10.27
64698;BME280;51124;53.394;-6.294;2023-05-12T07:08:18;102057.67;;;18.71;10.16
64698;BME280;51124;53.394;-6.294;2023-05-12T07:10:54;102060.04;;;18.67;9.97
64698;BME280;51124;53.394;-6.294;2023-05-12T07:13:17;102065.07;;;18.23;10.21
64698;BME280;51124;53.394;-6.294;2023-05-12T07:15:50;102063.14;;;18.82;9.96
64698;BME280;51124;53.394;-6.294;2023-05-12T07:18:24;102056.73;;;18.93;9.86
64698;BME280;51124;53.394;-6.294;2023-05-12T07:20:57;102056.09;;;19.35;9.74
64698;BME280;51124;53.394;-6.294;2023-05-12T07:23:31;102060.21;;;17.89;10.16
64698;BME280;51124;53.394;-6.294;2023-05-12T07:26:05;102060.58;;;18.69;10.09
64698;BME280;51124;53.394;-6.294;2023-05-12T07:28:39;102060.33;;;18.73;9.95
64698;BME280;51124;53.394;-6.294;2023-05-12T07:31:12;102061.58;;;19.49;9.56
64698;BME280;51124;53.394;-6.294;2023-05-12T07:33:45;102060.75;;;20.44;9.31
64698;BME280;51124;53.394;-6.294;2023-05-12T07:36:19;102062.25;;;20.33;9.32
64698;BME280;51124;53.394;-6.294;2023-05-12T07:38:53;102067.84;;;21.02;8.87
64698;BME280;51124;53.394;-6.294;2023-05-12T07:41:29;102064.87;;;21.21;8.96
64698;BME280;51124;53.394;-6.294;2023-05-12T07:43:52;102068.40;;;20.26;9.16
64698;BME280;51124;53.394;-6.294;2023-05-12T07:46:26;102069.67;;;20.41;9.19
64698;BME280;51124;53.394;-6.294;2023-05-12T07:48:59;102074.06;;;19.74;9.53
64698;BME280;51124;53.394;-6.294;2023-05-12T07:51:33;102076.29;;;19.93;9.45
64698;BME280;51124;53.394;-6.294;2023-05-12T07:54:06;102077.75;;;21.21;9.58
64698;BME280;51124;53.394;-6.294;2023-05-12T07:56:39;102074.15;;;20.39;9.31
64698;BME280;51124;53.394;-6.294;2023-05-12T07:59:13;102084.76;;;20.43;9.29
64698;BME280;51124;53.394;-6.294;2023-05-12T08:01:47;102087.77;;;21.58;9.27
64698;BME280;51124;53.394;-6.294;2023-05-12T08:04:20;102087.79;;;20.68;9.29
64698;BME280;51124;53.394;-6.294;2023-05-12T08:06:54;102090.59;;;21.62;9.36
64698;BME280;51124;53.394;-6.294;2023-05-12T08:09:27;102092.86;;;20.86;9.53
64698;BME280;51124;53.394;-6.294;2023-05-12T08:12:03;102097.01;;;20.83;9.40
64698;BME280;51124;53.394;-6.294;2023-05-12T08:14:28;102099.28;;;20.76;9.25
64698;BME280;51124;53.394;-6.294;2023-05-12T08:16:53;102103.54;;;19.95;9.31
64698;BME280;51124;53.394;-6.294;2023-05-12T08:19:16;102103.19;;;20.05;9.60
64698;BME280;51124;53.394;-6.294;2023-05-12T08:21:50;102110.44;;;21.26;9.22
64698;BME280;51124;53.394;-6.294;2023-05-12T08:24:23;102109.41;;;22.52;9.78
64698;BME280;51124;53.394;-6.294;2023-05-12T08:26:57;102106.95;;;22.72;9.91
64698;BME280;51124;53.394;-6.294;2023-05-12T08:29:31;102114.24;;;21.20;10.17
64698;BME280;51124;53.394;-6.294;2023-05-12T08:32:05;102114.39;;;23.94;10.11
64698;BME280;51124;53.394;-6.294;2023-05-12T08:34:38;102117.42;;;23.90;10.80
64698;BME280;51124;53.394;-6.294;2023-05-12T08:37:12;102120.67;;;23.87;10.90
64698;BME280;51124;53.394;-6.294;2023-05-12T08:39:46;102126.90;;;22.37;11.33
64698;BME280;51124;53.394;-6.294;2023-05-12T08:42:29;102128.63;;;23.37;11.25
64698;BME280;51124;53.394;-6.294;2023-05-12T08:44:48;102133.52;;;23.38;11.32
64698;BME280;51124;53.394;-6.294;2023-05-12T08:47:22;102134.21;;;22.81;11.60
64698;BME280;51124;53.394;-6.294;2023-05-12T08:49:59;102143.88;;;23.56;11.33
64698;BME280;51124;53.394;-6.294;2023-05-12T08:52:23;102147.47;;;23.67;11.33
64698;BME280;51124;53.394;-6.294;2023-05-12T08:54:58;102151.24;;;23.66;11.34
64698;BME280;51124;53.394;-6.294;2023-05-12T08:57:32;102150.42;;;23.71;11.47
64698;BME280;51124;53.394;-6.294;2023-05-12T09:00:07;102156.30;;;23.37;11.47
64698;BME280;51124;53.394;-6.294;2023-05-12T09:02:42;102161.88;;;22.07;12.03
64698;BME280;51124;53.394;-6.294;2023-05-12T09:05:16;102161.92;;;22.92;11.97
64698;BME280;51124;53.394;-6.294;2023-05-12T09:07:50;102161.98;;;23.00;12.01
64698;BME280;51124;53.394;-6.294;2023-05-12T09:10:17;102166.74;;;22.47;12.20
64698;BME280;51124;53.394;-6.294;2023-05-12T09:12:42;102162.65;;;24.05;11.73
64698;BME280;51124;53.394;-6.294;2023-05-12T09:15:10;102164.33;;;23.64;11.44
64698;BME280;51124;53.394;-6.294;2023-05-12T09:17:36;102162.18;;;23.87;11.35
64698;BME280;51124;53.394;-6.294;2023-05-12T09:20:11;102165.37;;;23.81;11.28
64698;BME280;51124;53.394;-6.294;2023-05-12T09:22:49;102164.35;;;23.14;11.23
64698;BME280;51124;53.394;-6.294;2023-05-12T09:25:14;102167.25;;;21.53;10.99
64698;BME280;51124;53.394;-6.294;2023-05-12T09:27:54;102170.32;;;20.61;10.63
64698;BME280;51124;53.394;-6.294;2023-05-12T09:30:10;102163.70;;;21.49;10.20
64698;BME280;51124;53.394;-6.294;2023-05-12T09:32:35;102164.52;;;22.18;9.96
64698;BME280;51124;53.394;-6.294;2023-05-12T09:35:04;102166.78;;;22.24;9.89
64698;BME280;51124;53.394;-6.294;2023-05-12T09:37:33;102174.40;;;21.75;9.86
64698;BME280;51124;53.394;-6.294;2023-05-12T09:40:00;102173.49;;;22.46;9.46
64698;BME280;51124;53.394;-6.294;2023-05-12T09:42:29;102173.56;;;22.43;9.22
64698;BME280;51124;53.394;-6.294;2023-05-12T09:44:52;102175.19;;;23.05;9.37
64698;BME280;51124;53.394;-6.294;2023-05-12T09:47:43;102177.01;;;23.06;9.30
64698;BME280;51124;53.394;-6.294;2023-05-12T09:49:56;102178.38;;;22.24;9.34
64698;BME280;51124;53.394;-6.294;2023-05-12T09:52:30;102180.60;;;22.36;9.42
64698;BME280;51124;53.394;-6.294;2023-05-12T09:55:04;102181.50;;;21.29;9.58
64698;BME280;51124;53.394;-6.294;2023-05-12T09:57:28;102181.87;;;22.00;9.43
64698;BME280;51124;53.394;-6.294;2023-05-12T10:00:04;102180.85;;;21.89;9.40
64698;BME280;51124;53.394;-6.294;2023-05-12T10:02:31;102179.63;;;22.96;9.12
64698;BME280;51124;53.394;-6.294;2023-05-12T10:04:57;102182.99;;;21.94;9.19
64698;BME280;51124;53.394;-6.294;2023-05-12T10:07:24;102186.14;;;22.99;8.96
64698;BME280;51124;53.394;-6.294;2023-05-12T10:09:51;102178.49;;;22.93;8.95
64698;BME280;51124;53.394;-6.294;2023-05-12T10:12:17;102176.30;;;23.34;8.89
64698;BME280;51124;53.394;-6.294;2023-05-12T10:14:51;102180.83;;;23.13;8.79
64698;BME280;51124;53.394;-6.294;2023-05-12T10:17:25;102179.54;;;22.48;8.95
64698;BME280;51124;53.394;-6.294;2023-05-12T10:20:00;102181.14;;;22.90;8.86
64698;BME280;51124;53.394;-6.294;2023-05-12T10:22:25;102183.77;;;22.09;9.04
64698;BME280;51124;53.394;-6.294;2023-05-12T10:24:55;102184.58;;;22.53;9.01
64698;BME280;51124;53.394;-6.294;2023-05-12T10:27:20;102180.58;;;22.83;8.89
64698;BME280;51124;53.394;-6.294;2023-05-12T10:29:49;102188.40;;;22.93;8.84
64698;BME280;51124;53.394;-6.294;2023-05-12T10:32:16;102185.49;;;22.89;8.89
64698;BME280;51124;53.394;-6.294;2023-05-12T10:34:41;102180.59;;;23.55;8.70
64698;BME280;51124;53.394;-6.294;2023-05-12T10:37:06;102188.71;;;22.66;8.97
64698;BME280;51124;53.394;-6.294;2023-05-12T10:39:31;102185.36;;;23.07;8.71
64698;BME280;51124;53.394;-6.294;2023-05-12T10:42:05;102185.34;;;22.23;8.99
64698;BME280;51124;53.394;-6.294;2023-05-12T10:44:49;102195.39;;;23.38;8.72
64698;BME280;51124;53.394;-6.294;2023-05-12T10:47:14;102193.94;;;22.66;8.93
64698;BME280;51124;53.394;-6.294;2023-05-12T10:50:33;102199.49;;;20.62;8.49
64698;BME280;51124;53.394;-6.294;2023-05-12T10:52:18;102199.27;;;19.84;9.21
64698;BME280;51124;53.394;-6.294;2023-05-12T10:54:43;102201.68;;;18.62;9.34
64698;BME280;51124;53.394;-6.294;2023-05-12T10:57:20;102210.74;;;17.94;10.23
64698;BME280;51124;53.394;-6.294;2023-05-12T10:59:48;102204.22;;;17.88;10.28
64698;BME280;51124;53.394;-6.294;2023-05-12T11:02:13;102206.94;;;18.43;10.31
64698;BME280;51124;53.394;-6.294;2023-05-12T11:04:39;102209.64;;;17.79;10.32
64698;BME280;51124;53.394;-6.294;2023-05-12T11:07:46;102216.33;;;17.76;10.31
64698;BME280;51124;53.394;-6.294;2023-05-12T11:09:29;102212.67;;;18.57;9.99
64698;BME280;51124;53.394;-6.294;2023-05-12T11:12:06;102209.99;;;18.06;10.30
64698;BME280;51124;53.394;-6.294;2023-05-12T11:14:30;102210.27;;;18.20;10.15
64698;BME280;51124;53.394;-6.294;2023-05-12T11:17:04;102206.13;;;18.98;10.04
64698;BME280;51124;53.394;-6.294;2023-05-12T11:19:38;102201.71;;;20.99;8.93
64698;BME280;51124;53.394;-6.294;2023-05-12T11:22:15;102200.13;;;22.47;8.37
64698;BME280;51124;53.394;-6.294;2023-05-12T11:24:40;102205.15;;;22.36;8.07
64698;BME280;51124;53.394;-6.294;2023-05-12T11:27:15;102206.72;;;23.58;7.84
64698;BME280;51124;53.394;-6.294;2023-05-12T11:29:39;102209.87;;;24.12;8.27
64698;BME280;51124;53.394;-6.294;2023-05-12T11:32:14;102213.37;;;23.57;8.74
64698;BME280;51124;53.394;-6.294;2023-05-12T11:34:49;102210.82;;;22.08;8.79
64698;BME280;51124;53.394;-6.294;2023-05-12T11:37:24;102213.40;;;24.90;8.92
64698;BME280;51124;53.394;-6.294;2023-05-12T11:39:48;102210.71;;;25.00;9.33
64698;BME280;51124;53.394;-6.294;2023-05-12T11:42:22;102218.33;;;24.76;9.29
64698;BME280;51124;53.394;-6.294;2023-05-12T11:44:55;102211.53;;;24.54;9.70
64698;BME280;51124;53.394;-6.294;2023-05-12T11:47:29;102209.76;;;25.12;9.46
64698;BME280;51124;53.394;-6.294;2023-05-12T11:50:03;102215.98;;;25.23;9.60
64698;BME280;51124;53.394;-6.294;2023-05-12T11:52:36;102214.49;;;26.96;9.14
64698;BME280;51124;53.394;-6.294;2023-05-12T11:55:10;102219.80;;;26.45;9.20
64698;BME280;51124;53.394;-6.294;2023-05-12T11:57:54;102215.53;;;26.21;9.29
64698;BME280;51124;53.394;-6.294;2023-05-12T12:00:26;102212.08;;;26.54;9.30
64698;BME280;51124;53.394;-6.294;2023-05-12T12:02:50;102217.25;;;25.76;9.58
64698;BME280;51124;53.394;-6.294;2023-05-12T12:05:24;102214.55;;;25.89;9.43
64698;BME280;51124;53.394;-6.294;2023-05-12T12:08:04;102216.80;;;25.51;9.73
64698;BME280;51124;53.394;-6.294;2023-05-12T12:10:28;102216.64;;;27.23;9.13
64698;BME280;51124;53.394;-6.294;2023-05-12T12:13:01;102217.45;;;26.86;9.07
64698;BME280;51124;53.394;-6.294;2023-05-12T12:15:35;102230.51;;;25.81;9.56
64698;BME280;51124;53.394;-6.294;2023-05-12T12:18:08;102229.82;;;26.00;9.65
64698;BME280;51124;53.394;-6.294;2023-05-12T12:20:42;102228.42;;;25.74;9.72
64698;BME280;51124;53.394;-6.294;2023-05-12T12:23:15;102227.04;;;26.18;9.57
64698;BME280;51124;53.394;-6.294;2023-05-12T12:25:51;102227.34;;;26.52;9.05
64698;BME280;51124;53.394;-6.294;2023-05-12T12:28:17;102225.87;;;27.49;8.68
64698;BME280;51124;53.394;-6.294;2023-05-12T12:30:42;102221.35;;;25.86;8.74
64698;BME280;51124;53.394;-6.294;2023-05-12T12:33:05;102225.47;;;23.44;8.75
64698;BME280;51124;53.394;-6.294;2023-05-12T12:35:39;102224.16;;;28.06;7.20
64698;BME280;51124;53.394;-6.294;2023-05-12T12:38:12;102221.63;;;27.78;6.88
64698;BME280;51124;53.394;-6.294;2023-05-12T12:40:46;102218.73;;;34.19;4.79
64698;BME280;51124;53.394;-6.294;2023-05-12T12:43:19;102219.07;;;32.69;4.57
64698;BME280;51124;53.394;-6.294;2023-05-12T12:45:54;102212.65;;;27.49;5.73
64698;BME280;51124;53.394;-6.294;2023-05-12T12:48:20;102209.48;;;29.65;5.18
64698;BME280;51124;53.394;-6.294;2023-05-12T12:50:43;102214.08;;;31.23;4.67
64698;BME280;51124;53.394;-6.294;2023-05-12T12:53:16;102206.33;;;35.79;3.13
64698;BME280;51124;53.394;-6.294;2023-05-12T12:55:50;102205.43;;;30.97;3.85